sensor_id;sensor_type;location;lat;lon;timestamp;P1;durP1;ratioP1;P2;durP2;ratioP2
19358;SDS011;9815;52.334;20.890;2022-07-05T00:01:47;14.13;;;8.53;;
19358;SDS011;9815;52.334;20.890;2022-07-05T00:04:16;11.07;;;8.57;;
19358;SDS011;9815;52.334;20.890;2022-07-05T00:06:44;9.50;;;8.53;;
19358;SDS011;9815;52.334;20.890;2022-07-05T00:09:30;11.27;;;8.47;;
19358;SDS011;9815;52.334;20.890;2022-07-05T00:11:58;10.23;;;8.37;;
19358;SDS011;9815;52.334;20.890;2022-07-05T00:14:26;10.93;;;8.40;;
19358;SDS011;9815;52.334;20.890;2022-07-05T00:16:56;12.73;;;8.40;;
19358;SDS011;9815;52.334;20.890;2022-07-05T00:19:24;12.80;;;8.30;;
19358;SDS011;9815;52.334;20.890;2022-07-05T00:21:52;11.23;;;8.37;;
19358;SDS011;9815;52.334;20.890;2022-07-05T00:24:20;12.03;;;9.17;;
19358;SDS011;9815;52.334;20.890;2022-07-05T00:26:49;14.63;;;9.07;;
19358;SDS011;9815;52.334;20.890;2022-07-05T00:29:17;12.40;;;9.23;;
19358;SDS011;9815;52.334;20.890;2022-07-05T00:31:45;13.50;;;9.50;;
19358;SDS011;9815;52.334;20.890;2022-07-05T00:34:14;12.90;;;9.50;;
19358;SDS011;9815;52.334;20.890;2022-07-05T00:36:43;13.27;;;9.80;;
19358;SDS011;9815;52.334;20.890;2022-07-05T00:39:11;11.80;;;9.40;;
19358;SDS011;9815;52.334;20.890;2022-07-05T00:41:40;12.57;;;9.23;;
19358;SDS011;9815;52.334;20.890;2022-07-05T00:44:08;11.20;;;8.40;;
19358;SDS011;9815;52.334;20.890;2022-07-05T00:46:38;11.67;;;8.93;;
19358;SDS011;9815;52.334;20.890;2022-07-05T00:49:06;15.73;;;9.20;;
19358;SDS011;9815;52.334;20.890;2022-07-05T00:51:37;13.67;;;9.73;;
19358;SDS011;9815;52.334;20.890;2022-07-05T00:54:26;10.57;;;9.03;;
19358;SDS011;9815;52.334;20.890;2022-07-05T00:56:54;12.63;;;9.67;;
19358;SDS011;9815;52.334;20.890;2022-07-05T00:59:25;14.43;;;9.60;;
19358;SDS011;9815;52.334;20.890;2022-07-05T01:01:53;13.23;;;9.93;;
19358;SDS011;9815;52.334;20.890;2022-07-05T01:04:21;15.17;;;10.27;;
19358;SDS011;9815;52.334;20.890;2022-07-05T01:06:52;13.23;;;9.60;;
19358;SDS011;9815;52.334;20.890;2022-07-05T01:09:21;12.57;;;9.77;;
19358;SDS011;9815;52.334;20.890;2022-07-05T01:11:50;12.63;;;10.17;;
19358;SDS011;9815;52.334;20.890;2022-07-05T01:14:21;14.47;;;9.83;;
19358;SDS011;9815;52.334;20.890;2022-07-05T01:16:50;15.50;;;10.20;;
19358;SDS011;9815;52.334;20.890;2022-07-05T01:19:20;14.23;;;9.57;;
19358;SDS011;9815;52.334;20.890;2022-07-05T01:21:49;14.50;;;9.97;;
19358;SDS011;9815;52.334;20.890;2022-07-05T01:24:19;13.50;;;9.43;;
19358;SDS011;9815;52.334;20.890;2022-07-05T01:26:48;13.17;;;9.93;;
19358;SDS011;9815;52.334;20.890;2022-07-05T01:29:17;13.43;;;9.63;;
19358;SDS011;9815;52.334;20.890;2022-07-05T01:31:45;15.77;;;10.00;;
19358;SDS011;9815;52.334;20.890;2022-07-05T01:34:14;14.13;;;9.63;;
19358;SDS011;9815;52.334;20.890;2022-07-05T01:36:42;14.13;;;9.83;;
19358;SDS011;9815;52.334;20.890;2022-07-05T01:39:10;13.07;;;9.27;;
19358;SDS011;9815;52.334;20.890;2022-07-05T01:41:40;16.40;;;9.77;;
19358;SDS011;9815;52.334;20.890;2022-07-05T01:44:08;14.53;;;10.30;;
19358;SDS011;9815;52.334;20.890;2022-07-05T01:46:38;14.83;;;10.43;;
19358;SDS011;9815;52.334;20.890;2022-07-05T01:49:09;14.03;;;9.20;;
19358;SDS011;9815;52.334;20.890;2022-07-05T01:51:40;17.83;;;9.97;;
19358;SDS011;9815;52.334;20.890;2022-07-05T01:54:12;13.97;;;9.93;;
19358;SDS011;9815;52.334;20.890;2022-07-05T01:56:42;18.00;;;9.00;;
19358;SDS011;9815;52.334;20.890;2022-07-05T01:59:11;11.13;;;8.73;;
19358;SDS011;9815;52.334;20.890;2022-07-05T02:01:39;12.20;;;9.47;;
19358;SDS011;9815;52.334;20.890;2022-07-05T02:04:08;14.27;;;9.10;;
19358;SDS011;9815;52.334;20.890;2022-07-05T02:06:39;13.43;;;8.50;;
19358;SDS011;9815;52.334;20.890;2022-07-05T02:09:09;14.37;;;9.07;;
19358;SDS011;9815;52.334;20.890;2022-07-05T02:11:38;9.63;;;8.43;;
19358;SDS011;9815;52.334;20.890;2022-07-05T02:14:08;14.40;;;8.33;;
19358;SDS011;9815;52.334;20.890;2022-07-05T02:16:39;9.77;;;7.90;;
19358;SDS011;9815;52.334;20.890;2022-07-05T02:19:07;9.53;;;7.70;;
19358;SDS011;9815;52.334;20.890;2022-07-05T02:21:39;11.43;;;8.37;;
19358;SDS011;9815;52.334;20.890;2022-07-05T02:24:11;10.77;;;8.07;;
19358;SDS011;9815;52.334;20.890;2022-07-05T02:26:47;10.53;;;8.03;;
19358;SDS011;9815;52.334;20.890;2022-07-05T02:29:18;11.87;;;7.60;;
19358;SDS011;9815;52.334;20.890;2022-07-05T02:31:47;10.40;;;8.03;;
19358;SDS011;9815;52.334;20.890;2022-07-05T02:34:17;10.17;;;7.43;;
19358;SDS011;9815;52.334;20.890;2022-07-05T02:36:45;13.97;;;8.03;;
19358;SDS011;9815;52.334;20.890;2022-07-05T02:39:14;11.73;;;7.27;;
19358;SDS011;9815;52.334;20.890;2022-07-05T02:41:44;10.03;;;7.80;;
19358;SDS011;9815;52.334;20.890;2022-07-05T02:44:12;8.37;;;7.43;;
19358;SDS011;9815;52.334;20.890;2022-07-05T02:46:43;11.43;;;6.93;;
19358;SDS011;9815;52.334;20.890;2022-07-05T02:49:12;10.70;;;7.17;;
19358;SDS011;9815;52.334;20.890;2022-07-05T02:51:40;9.23;;;6.67;;
19358;SDS011;9815;52.334;20.890;2022-07-05T02:54:11;8.10;;;6.43;;
19358;SDS011;9815;52.334;20.890;2022-07-05T02:56:41;9.07;;;6.73;;
19358;SDS011;9815;52.334;20.890;2022-07-05T02:59:13;9.17;;;5.47;;
19358;SDS011;9815;52.334;20.890;2022-07-05T03:01:41;9.73;;;6.23;;
19358;SDS011;9815;52.334;20.890;2022-07-05T03:04:14;6.87;;;5.73;;
19358;SDS011;9815;52.334;20.890;2022-07-05T03:06:49;12.47;;;5.67;;
19358;SDS011;9815;52.334;20.890;2022-07-05T03:09:22;6.30;;;5.33;;
19358;SDS011;9815;52.334;20.890;2022-07-05T03:11:50;9.87;;;5.33;;
19358;SDS011;9815;52.334;20.890;2022-07-05T03:14:19;7.73;;;4.93;;
19358;SDS011;9815;52.334;20.890;2022-07-05T03:16:49;11.53;;;4.90;;
19358;SDS011;9815;52.334;20.890;2022-07-05T03:19:20;6.20;;;4.90;;
19358;SDS011;9815;52.334;20.890;2022-07-05T03:21:49;8.20;;;4.90;;
19358;SDS011;9815;52.334;20.890;2022-07-05T03:24:19;5.47;;;4.20;;
19358;SDS011;9815;52.334;20.890;2022-07-05T03:26:47;5.83;;;4.70;;
19358;SDS011;9815;52.334;20.890;2022-07-05T03:29:15;6.70;;;4.40;;
19358;SDS011;9815;52.334;20.890;2022-07-05T03:31:44;9.00;;;4.17;;
19358;SDS011;9815;52.334;20.890;2022-07-05T03:34:12;5.27;;;4.03;;
19358;SDS011;9815;52.334;20.890;2022-07-05T03:36:43;6.80;;;3.83;;
19358;SDS011;9815;52.334;20.890;2022-07-05T03:39:15;6.53;;;3.60;;
19358;SDS011;9815;52.334;20.890;2022-07-05T03:41:45;5.83;;;3.90;;
19358;SDS011;9815;52.334;20.890;2022-07-05T03:44:18;5.43;;;3.77;;
19358;SDS011;9815;52.334;20.890;2022-07-05T03:46:46;4.93;;;3.60;;
19358;SDS011;9815;52.334;20.890;2022-07-05T03:49:17;3.53;;;3.23;;
19358;SDS011;9815;52.334;20.890;2022-07-05T03:51:47;5.13;;;3.17;;
19358;SDS011;9815;52.334;20.890;2022-07-05T03:54:16;7.60;;;3.40;;
19358;SDS011;9815;52.334;20.890;2022-07-05T03:56:44;4.07;;;3.30;;
19358;SDS011;9815;52.334;20.890;2022-07-05T03:59:14;6.20;;;3.20;;
19358;SDS011;9815;52.334;20.890;2022-07-05T04:01:42;6.23;;;3.17;;
19358;SDS011;9815;52.334;20.890;2022-07-05T04:04:12;8.20;;;3.50;;
19358;SDS011;9815;52.334;20.890;2022-07-05T04:06:41;4.33;;;3.00;;
19358;SDS011;9815;52.334;20.890;2022-07-05T04:09:11;4.67;;;3.17;;
19358;SDS011;9815;52.334;20.890;2022-07-05T04:11:39;3.90;;;3.43;;
19358;SDS011;9815;52.334;20.890;2022-07-05T04:14:08;4.77;;;3.07;;
19358;SDS011;9815;52.334;20.890;2022-07-05T04:16:37;8.87;;;3.30;;
19358;SDS011;9815;52.334;20.890;2022-07-05T04:19:06;5.17;;;3.00;;
19358;SDS011;9815;52.334;20.890;2022-07-05T04:21:36;8.17;;;3.10;;
19358;SDS011;9815;52.334;20.890;2022-07-05T04:24:05;5.07;;;3.20;;
19358;SDS011;9815;52.334;20.890;2022-07-05T04:26:36;5.60;;;3.10;;
19358;SDS011;9815;52.334;20.890;2022-07-05T04:29:04;5.13;;;3.10;;
19358;SDS011;9815;52.334;20.890;2022-07-05T04:31:36;5.70;;;3.10;;
19358;SDS011;9815;52.334;20.890;2022-07-05T04:34:05;3.43;;;2.80;;
19358;SDS011;9815;52.334;20.890;2022-07-05T04:36:37;9.03;;;3.40;;
19358;SDS011;9815;52.334;20.890;2022-07-05T04:39:08;5.83;;;3.40;;
19358;SDS011;9815;52.334;20.890;2022-07-05T04:41:42;5.83;;;3.20;;
19358;SDS011;9815;52.334;20.890;2022-07-05T04:44:11;3.77;;;3.17;;
19358;SDS011;9815;52.334;20.890;2022-07-05T04:46:39;5.23;;;3.07;;
19358;SDS011;9815;52.334;20.890;2022-07-05T04:49:08;4.23;;;3.27;;
19358;SDS011;9815;52.334;20.890;2022-07-05T04:51:37;6.73;;;3.30;;
19358;SDS011;9815;52.334;20.890;2022-07-05T04:54:12;3.63;;;2.80;;
19358;SDS011;9815;52.334;20.890;2022-07-05T04:56:40;5.37;;;3.00;;
19358;SDS011;9815;52.334;20.890;2022-07-05T04:59:10;3.37;;;2.47;;
19358;SDS011;9815;52.334;20.890;2022-07-05T05:01:38;3.87;;;2.57;;
19358;SDS011;9815;52.334;20.890;2022-07-05T05:04:06;3.23;;;2.53;;
19358;SDS011;9815;52.334;20.890;2022-07-05T05:06:34;4.03;;;2.50;;
19358;SDS011;9815;52.334;20.890;2022-07-05T05:09:03;3.03;;;2.43;;
19358;SDS011;9815;52.334;20.890;2022-07-05T05:11:31;4.73;;;2.20;;
19358;SDS011;9815;52.334;20.890;2022-07-05T05:14:01;3.97;;;2.30;;
19358;SDS011;9815;52.334;20.890;2022-07-05T05:16:29;5.97;;;2.40;;
19358;SDS011;9815;52.334;20.890;2022-07-05T05:18:57;3.30;;;2.37;;
19358;SDS011;9815;52.334;20.890;2022-07-05T05:21:25;4.37;;;2.60;;
19358;SDS011;9815;52.334;20.890;2022-07-05T05:23:54;2.80;;;2.43;;
19358;SDS011;9815;52.334;20.890;2022-07-05T05:26:22;4.00;;;2.13;;
19358;SDS011;9815;52.334;20.890;2022-07-05T05:28:50;5.00;;;2.43;;
19358;SDS011;9815;52.334;20.890;2022-07-05T05:31:20;5.63;;;2.53;;
19358;SDS011;9815;52.334;20.890;2022-07-05T05:33:48;3.87;;;2.57;;
19358;SDS011;9815;52.334;20.890;2022-07-05T05:36:17;3.47;;;2.67;;
19358;SDS011;9815;52.334;20.890;2022-07-05T05:38:45;2.60;;;2.10;;
19358;SDS011;9815;52.334;20.890;2022-07-05T05:41:16;3.83;;;2.20;;
19358;SDS011;9815;52.334;20.890;2022-07-05T05:43:45;2.73;;;2.13;;
19358;SDS011;9815;52.334;20.890;2022-07-05T05:46:13;3.00;;;2.50;;
19358;SDS011;9815;52.334;20.890;2022-07-05T05:48:42;2.57;;;2.10;;
19358;SDS011;9815;52.334;20.890;2022-07-05T05:51:11;6.07;;;2.67;;
19358;SDS011;9815;52.334;20.890;2022-07-05T05:53:39;2.67;;;2.13;;
19358;SDS011;9815;52.334;20.890;2022-07-05T05:56:07;3.13;;;2.40;;
19358;SDS011;9815;52.334;20.890;2022-07-05T05:58:36;2.30;;;2.00;;
19358;SDS011;9815;52.334;20.890;2022-07-05T06:01:09;2.80;;;2.10;;
19358;SDS011;9815;52.334;20.890;2022-07-05T06:03:37;8.37;;;2.37;;
19358;SDS011;9815;52.334;20.890;2022-07-05T06:06:06;3.80;;;2.37;;
19358;SDS011;9815;52.334;20.890;2022-07-05T06:08:35;3.73;;;2.13;;
19358;SDS011;9815;52.334;20.890;2022-07-05T06:11:03;5.73;;;2.30;;
19358;SDS011;9815;52.334;20.890;2022-07-05T06:13:31;4.40;;;2.40;;
19358;SDS011;9815;52.334;20.890;2022-07-05T06:15:59;3.57;;;2.20;;
19358;SDS011;9815;52.334;20.890;2022-07-05T06:18:28;4.70;;;2.30;;
19358;SDS011;9815;52.334;20.890;2022-07-05T06:20:56;3.00;;;2.00;;
19358;SDS011;9815;52.334;20.890;2022-07-05T06:23:25;7.10;;;2.20;;
19358;SDS011;9815;52.334;20.890;2022-07-05T06:25:53;2.97;;;2.20;;
19358;SDS011;9815;52.334;20.890;2022-07-05T06:28:22;3.33;;;2.33;;
19358;SDS011;9815;52.334;20.890;2022-07-05T06:30:50;2.60;;;2.30;;
19358;SDS011;9815;52.334;20.890;2022-07-05T06:33:19;2.50;;;2.17;;
19358;SDS011;9815;52.334;20.890;2022-07-05T06:35:47;5.53;;;2.37;;
19358;SDS011;9815;52.334;20.890;2022-07-05T06:38:15;3.87;;;2.40;;
19358;SDS011;9815;52.334;20.890;2022-07-05T06:40:45;2.30;;;2.10;;
19358;SDS011;9815;52.334;20.890;2022-07-05T06:43:13;3.33;;;2.20;;
19358;SDS011;9815;52.334;20.890;2022-07-05T06:45:47;3.13;;;2.50;;
19358;SDS011;9815;52.334;20.890;2022-07-05T06:48:15;2.60;;;2.23;;
19358;SDS011;9815;52.334;20.890;2022-07-05T06:50:44;3.10;;;2.20;;
19358;SDS011;9815;52.334;20.890;2022-07-05T06:53:12;3.50;;;1.93;;
19358;SDS011;9815;52.334;20.890;2022-07-05T06:55:40;2.37;;;2.13;;
19358;SDS011;9815;52.334;20.890;2022-07-05T06:58:20;2.27;;;1.87;;
19358;SDS011;9815;52.334;20.890;2022-07-05T07:00:48;3.83;;;2.13;;
19358;SDS011;9815;52.334;20.890;2022-07-05T07:03:36;2.67;;;2.20;;
19358;SDS011;9815;52.334;20.890;2022-07-05T07:06:24;6.20;;;2.30;;
19358;SDS011;9815;52.334;20.890;2022-07-05T07:08:53;6.17;;;2.07;;
19358;SDS011;9815;52.334;20.890;2022-07-05T07:11:37;4.17;;;2.50;;
19358;SDS011;9815;52.334;20.890;2022-07-05T07:14:07;2.90;;;2.10;;
19358;SDS011;9815;52.334;20.890;2022-07-05T07:16:35;4.10;;;2.10;;
19358;SDS011;9815;52.334;20.890;2022-07-05T07:19:03;2.17;;;1.97;;
19358;SDS011;9815;52.334;20.890;2022-07-05T07:21:40;3.07;;;2.03;;
19358;SDS011;9815;52.334;20.890;2022-07-05T07:24:10;5.15;;;2.30;;
19358;SDS011;9815;52.334;20.890;2022-07-05T07:26:38;2.40;;;2.20;;
19358;SDS011;9815;52.334;20.890;2022-07-05T07:29:22;2.70;;;1.88;;
19358;SDS011;9815;52.334;20.890;2022-07-05T07:31:51;2.90;;;1.97;;
19358;SDS011;9815;52.334;20.890;2022-07-05T07:34:19;2.80;;;2.10;;
19358;SDS011;9815;52.334;20.890;2022-07-05T07:36:47;2.80;;;2.10;;
19358;SDS011;9815;52.334;20.890;2022-07-05T07:39:16;2.05;;;1.90;;
19358;SDS011;9815;52.334;20.890;2022-07-05T07:41:45;2.65;;;1.90;;
19358;SDS011;9815;52.334;20.890;2022-07-05T07:44:14;4.15;;;1.85;;
19358;SDS011;9815;52.334;20.890;2022-07-05T07:46:44;3.78;;;2.13;;
19358;SDS011;9815;52.334;20.890;2022-07-05T07:49:13;3.17;;;2.20;;
19358;SDS011;9815;52.334;20.890;2022-07-05T07:51:43;4.13;;;2.10;;
19358;SDS011;9815;52.334;20.890;2022-07-05T07:54:11;2.10;;;1.90;;
19358;SDS011;9815;52.334;20.890;2022-07-05T07:56:41;2.75;;;2.10;;
19358;SDS011;9815;52.334;20.890;2022-07-05T07:59:10;2.08;;;1.88;;
19358;SDS011;9815;52.334;20.890;2022-07-05T08:01:38;2.67;;;2.00;;
19358;SDS011;9815;52.334;20.890;2022-07-05T08:04:12;2.08;;;1.88;;
19358;SDS011;9815;52.334;20.890;2022-07-05T08:06:42;2.65;;;1.92;;
19358;SDS011;9815;52.334;20.890;2022-07-05T08:09:11;3.15;;;2.13;;
19358;SDS011;9815;52.334;20.890;2022-07-05T08:11:43;6.55;;;2.00;;
19358;SDS011;9815;52.334;20.890;2022-07-05T08:14:13;3.95;;;1.83;;
19358;SDS011;9815;52.334;20.890;2022-07-05T08:16:42;4.60;;;1.85;;
19358;SDS011;9815;52.334;20.890;2022-07-05T08:19:19;1.98;;;1.70;;
19358;SDS011;9815;52.334;20.890;2022-07-05T08:22:06;3.47;;;2.00;;
19358;SDS011;9815;52.334;20.890;2022-07-05T08:24:35;3.08;;;2.00;;
19358;SDS011;9815;52.334;20.890;2022-07-05T08:27:06;4.85;;;1.90;;
19358;SDS011;9815;52.334;20.890;2022-07-05T08:29:35;2.70;;;1.88;;
19358;SDS011;9815;52.334;20.890;2022-07-05T08:32:04;4.97;;;2.05;;
19358;SDS011;9815;52.334;20.890;2022-07-05T08:34:34;3.67;;;1.65;;
19358;SDS011;9815;52.334;20.890;2022-07-05T08:37:03;4.30;;;1.80;;
19358;SDS011;9815;52.334;20.890;2022-07-05T08:39:40;3.67;;;2.03;;
19358;SDS011;9815;52.334;20.890;2022-07-05T08:42:08;3.58;;;1.90;;
19358;SDS011;9815;52.334;20.890;2022-07-05T08:44:38;2.92;;;1.90;;
19358;SDS011;9815;52.334;20.890;2022-07-05T08:47:09;2.22;;;1.77;;
19358;SDS011;9815;52.334;20.890;2022-07-05T08:49:40;4.03;;;2.00;;
19358;SDS011;9815;52.334;20.890;2022-07-05T08:52:10;4.70;;;1.90;;
19358;SDS011;9815;52.334;20.890;2022-07-05T08:54:39;3.55;;;1.90;;
19358;SDS011;9815;52.334;20.890;2022-07-05T08:57:08;4.57;;;2.00;;
19358;SDS011;9815;52.334;20.890;2022-07-05T08:59:39;3.70;;;2.10;;
19358;SDS011;9815;52.334;20.890;2022-07-05T09:02:08;5.40;;;2.20;;
19358;SDS011;9815;52.334;20.890;2022-07-05T09:04:43;3.35;;;1.90;;
19358;SDS011;9815;52.334;20.890;2022-07-05T09:07:14;3.45;;;1.95;;
19358;SDS011;9815;52.334;20.890;2022-07-05T09:09:45;3.55;;;1.80;;
19358;SDS011;9815;52.334;20.890;2022-07-05T09:12:15;3.63;;;2.03;;
19358;SDS011;9815;52.334;20.890;2022-07-05T09:14:50;2.10;;;1.92;;
19358;SDS011;9815;52.334;20.890;2022-07-05T09:17:18;2.30;;;1.83;;
19358;SDS011;9815;52.334;20.890;2022-07-05T09:19:52;3.13;;;1.90;;
19358;SDS011;9815;52.334;20.890;2022-07-05T09:22:44;5.40;;;1.98;;
19358;SDS011;9815;52.334;20.890;2022-07-05T09:25:14;2.55;;;1.92;;
19358;SDS011;9815;52.334;20.890;2022-07-05T09:27:51;3.55;;;1.75;;
19358;SDS011;9815;52.334;20.890;2022-07-05T09:30:25;4.20;;;2.40;;
19358;SDS011;9815;52.334;20.890;2022-07-05T09:33:06;5.85;;;2.10;;
19358;SDS011;9815;52.334;20.890;2022-07-05T09:35:37;4.22;;;2.00;;
19358;SDS011;9815;52.334;20.890;2022-07-05T09:38:15;3.72;;;2.00;;
19358;SDS011;9815;52.334;20.890;2022-07-05T09:40:45;4.90;;;2.10;;
19358;SDS011;9815;52.334;20.890;2022-07-05T09:43:16;3.35;;;1.98;;
19358;SDS011;9815;52.334;20.890;2022-07-05T09:45:56;2.55;;;1.80;;
19358;SDS011;9815;52.334;20.890;2022-07-05T09:48:25;4.40;;;2.00;;
19358;SDS011;9815;52.334;20.890;2022-07-05T09:51:06;2.60;;;2.08;;
19358;SDS011;9815;52.334;20.890;2022-07-05T09:53:56;2.88;;;2.10;;
19358;SDS011;9815;52.334;20.890;2022-07-05T09:56:42;2.30;;;1.70;;
19358;SDS011;9815;52.334;20.890;2022-07-05T09:59:12;2.80;;;1.65;;
19358;SDS011;9815;52.334;20.890;2022-07-05T10:01:41;3.63;;;1.67;;
19358;SDS011;9815;52.334;20.890;2022-07-05T10:04:10;4.32;;;1.90;;
19358;SDS011;9815;52.334;20.890;2022-07-05T10:06:39;3.90;;;1.73;;
19358;SDS011;9815;52.334;20.890;2022-07-05T10:09:09;3.25;;;1.88;;
19358;SDS011;9815;52.334;20.890;2022-07-05T10:11:39;3.30;;;1.60;;
19358;SDS011;9815;52.334;20.890;2022-07-05T10:14:10;3.42;;;1.67;;
19358;SDS011;9815;52.334;20.890;2022-07-05T10:16:41;4.28;;;1.70;;
19358;SDS011;9815;52.334;20.890;2022-07-05T10:19:15;2.40;;;1.70;;
19358;SDS011;9815;52.334;20.890;2022-07-05T10:21:48;2.55;;;1.52;;
19358;SDS011;9815;52.334;20.890;2022-07-05T10:24:37;3.53;;;1.83;;
19358;SDS011;9815;52.334;20.890;2022-07-05T10:27:06;4.07;;;1.80;;
19358;SDS011;9815;52.334;20.890;2022-07-05T10:29:36;5.10;;;1.60;;
19358;SDS011;9815;52.334;20.890;2022-07-05T10:32:05;3.20;;;1.80;;
19358;SDS011;9815;52.334;20.890;2022-07-05T10:34:36;2.88;;;2.20;;
19358;SDS011;9815;52.334;20.890;2022-07-05T10:37:26;2.42;;;1.90;;
19358;SDS011;9815;52.334;20.890;2022-07-05T10:39:56;3.83;;;1.60;;
19358;SDS011;9815;52.334;20.890;2022-07-05T10:42:27;3.55;;;2.03;;
19358;SDS011;9815;52.334;20.890;2022-07-05T10:44:58;3.35;;;1.80;;
19358;SDS011;9815;52.334;20.890;2022-07-05T10:47:27;4.80;;;2.10;;
19358;SDS011;9815;52.334;20.890;2022-07-05T10:50:00;3.55;;;1.80;;
19358;SDS011;9815;52.334;20.890;2022-07-05T10:52:31;4.50;;;2.03;;
19358;SDS011;9815;52.334;20.890;2022-07-05T10:55:19;3.50;;;2.00;;
19358;SDS011;9815;52.334;20.890;2022-07-05T11:00:47;8.05;;;2.20;;
19358;SDS011;9815;52.334;20.890;2022-07-05T11:03:35;5.38;;;2.20;;
19358;SDS011;9815;52.334;20.890;2022-07-05T11:06:05;7.10;;;2.10;;
19358;SDS011;9815;52.334;20.890;2022-07-05T11:11:43;5.38;;;2.33;;
19358;SDS011;9815;52.334;20.890;2022-07-05T11:14:33;3.97;;;1.88;;
19358;SDS011;9815;52.334;20.890;2022-07-05T11:17:10;5.20;;;2.00;;
19358;SDS011;9815;52.334;20.890;2022-07-05T11:20:17;4.57;;;1.70;;
19358;SDS011;9815;52.334;20.890;2022-07-05T11:23:03;5.10;;;1.92;;
19358;SDS011;9815;52.334;20.890;2022-07-05T11:25:35;3.67;;;2.08;;
19358;SDS011;9815;52.334;20.890;2022-07-05T11:28:18;3.55;;;2.05;;
19358;SDS011;9815;52.334;20.890;2022-07-05T11:30:51;5.32;;;1.67;;
19358;SDS011;9815;52.334;20.890;2022-07-05T11:33:28;2.38;;;1.77;;
19358;SDS011;9815;52.334;20.890;2022-07-05T11:36:25;4.07;;;1.90;;
19358;SDS011;9815;52.334;20.890;2022-07-05T11:39:12;5.85;;;2.35;;
19358;SDS011;9815;52.334;20.890;2022-07-05T11:41:45;5.78;;;2.08;;
19358;SDS011;9815;52.334;20.890;2022-07-05T11:44:14;6.28;;;1.52;;
19358;SDS011;9815;52.334;20.890;2022-07-05T11:46:44;2.97;;;1.98;;
19358;SDS011;9815;52.334;20.890;2022-07-05T11:49:18;3.15;;;1.60;;
19358;SDS011;9815;52.334;20.890;2022-07-05T11:51:57;2.95;;;1.73;;
19358;SDS011;9815;52.334;20.890;2022-07-05T11:54:27;2.13;;;1.60;;
19358;SDS011;9815;52.334;20.890;2022-07-05T11:56:58;2.30;;;1.63;;
19358;SDS011;9815;52.334;20.890;2022-07-05T11:59:27;2.42;;;1.60;;
19358;SDS011;9815;52.334;20.890;2022-07-05T12:01:56;2.65;;;1.75;;
19358;SDS011;9815;52.334;20.890;2022-07-05T12:04:25;5.63;;;1.70;;
19358;SDS011;9815;52.334;20.890;2022-07-05T12:06:55;2.20;;;1.65;;
19358;SDS011;9815;52.334;20.890;2022-07-05T12:09:24;3.78;;;1.75;;
19358;SDS011;9815;52.334;20.890;2022-07-05T12:11:55;2.42;;;1.70;;
19358;SDS011;9815;52.334;20.890;2022-07-05T12:14:50;2.60;;;1.70;;
19358;SDS011;9815;52.334;20.890;2022-07-05T12:17:19;4.50;;;1.63;;
19358;SDS011;9815;52.334;20.890;2022-07-05T12:19:52;5.97;;;2.08;;
19358;SDS011;9815;52.334;20.890;2022-07-05T12:22:28;2.53;;;1.70;;
19358;SDS011;9815;52.334;20.890;2022-07-05T12:24:58;2.40;;;1.70;;
19358;SDS011;9815;52.334;20.890;2022-07-05T12:27:28;2.05;;;1.77;;
19358;SDS011;9815;52.334;20.890;2022-07-05T12:29:58;2.28;;;1.80;;
19358;SDS011;9815;52.334;20.890;2022-07-05T12:32:29;2.97;;;1.90;;
19358;SDS011;9815;52.334;20.890;2022-07-05T12:34:57;2.45;;;1.75;;
19358;SDS011;9815;52.334;20.890;2022-07-05T12:37:32;3.83;;;1.85;;
19358;SDS011;9815;52.334;20.890;2022-07-05T12:40:02;2.05;;;1.40;;
19358;SDS011;9815;52.334;20.890;2022-07-05T12:42:32;2.58;;;1.48;;
19358;SDS011;9815;52.334;20.890;2022-07-05T12:45:13;3.58;;;1.30;;
19358;SDS011;9815;52.334;20.890;2022-07-05T12:47:49;3.50;;;1.45;;
19358;SDS011;9815;52.334;20.890;2022-07-05T12:50:20;3.47;;;1.48;;
19358;SDS011;9815;52.334;20.890;2022-07-05T12:52:54;2.53;;;1.30;;
19358;SDS011;9815;52.334;20.890;2022-07-05T12:55:33;2.63;;;1.40;;
19358;SDS011;9815;52.334;20.890;2022-07-05T12:58:20;2.35;;;1.23;;
19358;SDS011;9815;52.334;20.890;2022-07-05T13:00:50;2.42;;;1.13;;
19358;SDS011;9815;52.334;20.890;2022-07-05T13:03:18;1.83;;;1.20;;
19358;SDS011;9815;52.334;20.890;2022-07-05T13:05:59;1.75;;;1.20;;
19358;SDS011;9815;52.334;20.890;2022-07-05T13:08:28;4.05;;;1.50;;
19358;SDS011;9815;52.334;20.890;2022-07-05T13:10:57;2.88;;;1.20;;
19358;SDS011;9815;52.334;20.890;2022-07-05T13:13:25;2.92;;;1.20;;
19358;SDS011;9815;52.334;20.890;2022-07-05T13:15:55;2.15;;;1.20;;
19358;SDS011;9815;52.334;20.890;2022-07-05T13:18:25;1.98;;;1.38;;
19358;SDS011;9815;52.334;20.890;2022-07-05T13:20:53;2.03;;;1.40;;
19358;SDS011;9815;52.334;20.890;2022-07-05T13:23:22;1.58;;;1.10;;
19358;SDS011;9815;52.334;20.890;2022-07-05T13:25:50;2.65;;;1.42;;
19358;SDS011;9815;52.334;20.890;2022-07-05T13:28:19;2.97;;;1.30;;
19358;SDS011;9815;52.334;20.890;2022-07-05T13:30:47;5.85;;;1.08;;
19358;SDS011;9815;52.334;20.890;2022-07-05T13:33:16;2.13;;;1.30;;
19358;SDS011;9815;52.334;20.890;2022-07-05T13:35:44;2.90;;;1.30;;
19358;SDS011;9815;52.334;20.890;2022-07-05T13:38:12;3.35;;;1.40;;
19358;SDS011;9815;52.334;20.890;2022-07-05T13:40:41;2.72;;;1.10;;
19358;SDS011;9815;52.334;20.890;2022-07-05T13:43:09;5.18;;;1.48;;
19358;SDS011;9815;52.334;20.890;2022-07-05T13:45:37;1.85;;;1.15;;
19358;SDS011;9815;52.334;20.890;2022-07-05T13:48:05;1.50;;;1.20;;
19358;SDS011;9815;52.334;20.890;2022-07-05T13:50:36;2.43;;;1.40;;
19358;SDS011;9815;52.334;20.890;2022-07-05T13:53:05;1.67;;;1.15;;
19358;SDS011;9815;52.334;20.890;2022-07-05T13:55:33;3.50;;;1.23;;
19358;SDS011;9815;52.334;20.890;2022-07-05T13:58:01;5.13;;;1.20;;
19358;SDS011;9815;52.334;20.890;2022-07-05T14:00:30;4.07;;;1.20;;
19358;SDS011;9815;52.334;20.890;2022-07-05T14:02:59;5.37;;;1.00;;
19358;SDS011;9815;52.334;20.890;2022-07-05T14:05:32;3.72;;;1.30;;
19358;SDS011;9815;52.334;20.890;2022-07-05T14:08:01;4.30;;;1.10;;
19358;SDS011;9815;52.334;20.890;2022-07-05T14:10:30;6.03;;;1.38;;
19358;SDS011;9815;52.334;20.890;2022-07-05T14:12:58;1.35;;;1.25;;
19358;SDS011;9815;52.334;20.890;2022-07-05T14:15:26;3.05;;;1.10;;
19358;SDS011;9815;52.334;20.890;2022-07-05T14:17:55;3.37;;;1.17;;
19358;SDS011;9815;52.334;20.890;2022-07-05T14:20:26;4.28;;;1.20;;
19358;SDS011;9815;52.334;20.890;2022-07-05T14:22:54;2.17;;;1.30;;
19358;SDS011;9815;52.334;20.890;2022-07-05T14:25:24;5.97;;;1.50;;
19358;SDS011;9815;52.334;20.890;2022-07-05T14:27:53;3.23;;;1.10;;
19358;SDS011;9815;52.334;20.890;2022-07-05T14:30:21;2.70;;;1.30;;
19358;SDS011;9815;52.334;20.890;2022-07-05T14:32:50;3.73;;;1.13;;
19358;SDS011;9815;52.334;20.890;2022-07-05T14:35:19;1.93;;;1.20;;
19358;SDS011;9815;52.334;20.890;2022-07-05T14:37:48;1.97;;;1.20;;
19358;SDS011;9815;52.334;20.890;2022-07-05T14:40:16;5.37;;;1.20;;
19358;SDS011;9815;52.334;20.890;2022-07-05T14:42:46;2.27;;;1.30;;
19358;SDS011;9815;52.334;20.890;2022-07-05T14:45:15;1.93;;;1.40;;
19358;SDS011;9815;52.334;20.890;2022-07-05T14:47:43;2.43;;;1.37;;
19358;SDS011;9815;52.334;20.890;2022-07-05T14:50:12;3.07;;;1.30;;
19358;SDS011;9815;52.334;20.890;2022-07-05T14:52:42;2.20;;;1.30;;
19358;SDS011;9815;52.334;20.890;2022-07-05T14:55:10;5.13;;;1.53;;
19358;SDS011;9815;52.334;20.890;2022-07-05T14:57:39;8.33;;;1.63;;
19358;SDS011;9815;52.334;20.890;2022-07-05T15:00:10;3.93;;;1.73;;
19358;SDS011;9815;52.334;20.890;2022-07-05T15:02:40;3.43;;;1.40;;
19358;SDS011;9815;52.334;20.890;2022-07-05T15:05:09;3.47;;;1.60;;
19358;SDS011;9815;52.334;20.890;2022-07-05T15:07:38;4.13;;;1.47;;
19358;SDS011;9815;52.334;20.890;2022-07-05T15:10:08;3.40;;;1.80;;
19358;SDS011;9815;52.334;20.890;2022-07-05T15:12:37;7.73;;;2.23;;
19358;SDS011;9815;52.334;20.890;2022-07-05T15:15:05;5.60;;;2.30;;